sensor_id;sensor_type;location;lat;lon;timestamp;temperature;humidity
9776;DHT22;4927;52.472;13.108;2023-08-30T00:00:47;14.10;99.90
9776;DHT22;4927;52.472;13.108;2023-08-30T00:01:49;14.10;99.90
9776;DHT22;4927;52.472;13.108;2023-08-30T00:02:51;14.10;99.90
9776;DHT22;4927;52.472;13.108;2023-08-30T00:03:52;14.10;99.90
9776;DHT22;4927;52.472;13.108;2023-08-30T00:04:58;14.10;99.90
9776;DHT22;4927;52.472;13.108;2023-08-30T00:06:01;14.10;99.90
9776;DHT22;4927;52.472;13.108;2023-08-30T00:06:57;14.10;99.90
9776;DHT22;4927;52.472;13.108;2023-08-30T00:07:59;14.10;99.90
9776;DHT22;4927;52.472;13.108;2023-08-30T00:09:01;14.10;99.90
9776;DHT22;4927;52.472;13.108;2023-08-30T00:10:03;14.00;99.90
9776;DHT22;4927;52.472;13.108;2023-08-30T00:11:06;14.00;99.90
9776;DHT22;4927;52.472;13.108;2023-08-30T00:12:08;14.00;99.90
9776;DHT22;4927;52.472;13.108;2023-08-30T00:13:09;14.00;99.90
9776;DHT22;4927;52.472;13.108;2023-08-30T00:14:11;14.00;99.90
9776;DHT22;4927;52.472;13.108;2023-08-30T00:15:13;14.00;99.90
9776;DHT22;4927;52.472;13.108;2023-08-30T00:16:14;14.00;99.90
9776;DHT22;4927;52.472;13.108;2023-08-30T00:17:17;14.00;99.90
9776;DHT22;4927;52.472;13.108;2023-08-30T00:18:18;14.00;99.90
9776;DHT22;4927;52.472;13.108;2023-08-30T00:19:20;14.00;99.90
9776;DHT22;4927;52.472;13.108;2023-08-30T00:20:22;14.00;99.90
9776;DHT22;4927;52.472;13.108;2023-08-30T00:21:23;14.00;99.90
9776;DHT22;4927;52.472;13.108;2023-08-30T00:22:26;14.00;99.90
9776;DHT22;4927;52.472;13.108;2023-08-30T00:23:27;14.00;99.90
9776;DHT22;4927;52.472;13.108;2023-08-30T00:24:33;13.90;99.90
9776;DHT22;4927;52.472;13.108;2023-08-30T00:25:35;13.90;99.90
9776;DHT22;4927;52.472;13.108;2023-08-30T00:26:38;13.90;99.90
9776;DHT22;4927;52.472;13.108;2023-08-30T00:27:39;13.90;99.90
9776;DHT22;4927;52.472;13.108;2023-08-30T00:28:41;13.90;99.90
9776;DHT22;4927;52.472;13.108;2023-08-30T00:29:43;13.90;99.90
9776;DHT22;4927;52.472;13.108;2023-08-30T00:30:45;13.90;99.90
9776;DHT22;4927;52.472;13.108;2023-08-30T00:31:47;13.90;99.90
9776;DHT22;4927;52.472;13.108;2023-08-30T00:32:49;13.90;99.90
9776;DHT22;4927;52.472;13.108;2023-08-30T00:33:51;13.90;99.90
9776;DHT22;4927;52.472;13.108;2023-08-30T00:34:52;13.90;99.90
9776;DHT22;4927;52.472;13.108;2023-08-30T00:35:56;13.90;99.90
9776;DHT22;4927;52.472;13.108;2023-08-30T00:36:58;13.80;99.90
9776;DHT22;4927;52.472;13.108;2023-08-30T00:37:59;13.80;99.90
9776;DHT22;4927;52.472;13.108;2023-08-30T00:39:01;13.80;99.90
9776;DHT22;4927;52.472;13.108;2023-08-30T00:40:03;13.80;99.90
9776;DHT22;4927;52.472;13.108;2023-08-30T00:41:06;13.80;99.90
9776;DHT22;4927;52.472;13.108;2023-08-30T00:42:08;13.80;99.90
9776;DHT22;4927;52.472;13.108;2023-08-30T00:43:10;13.80;99.90
9776;DHT22;4927;52.472;13.108;2023-08-30T00:44:11;13.70;99.90
9776;DHT22;4927;52.472;13.108;2023-08-30T00:45:14;13.70;99.90
9776;DHT22;4927;52.472;13.108;2023-08-30T00:46:15;13.70;99.90
9776;DHT22;4927;52.472;13.108;2023-08-30T00:47:17;13.70;99.90
9776;DHT22;4927;52.472;13.108;2023-08-30T00:48:19;13.70;99.90
9776;DHT22;4927;52.472;13.108;2023-08-30T00:49:20;13.70;99.90
9776;DHT22;4927;52.472;13.108;2023-08-30T00:50:22;13.70;99.90
9776;DHT22;4927;52.472;13.108;2023-08-30T00:51:24;13.60;99.90
9776;DHT22;4927;52.472;13.108;2023-08-30T00:52:25;13.70;99.90
9776;DHT22;4927;52.472;13.108;2023-08-30T00:53:27;13.60;99.90
9776;DHT22;4927;52.472;13.108;2023-08-30T00:54:29;13.60;99.90
9776;DHT22;4927;52.472;13.108;2023-08-30T00:55:32;13.60;99.90
9776;DHT22;4927;52.472;13.108;2023-08-30T00:56:33;13.60;99.90
9776;DHT22;4927;52.472;13.108;2023-08-30T00:57:34;13.60;99.90
9776;DHT22;4927;52.472;13.108;2023-08-30T00:58:36;13.60;99.90
9776;DHT22;4927;52.472;13.108;2023-08-30T00:59:38;13.60;99.90
9776;DHT22;4927;52.472;13.108;2023-08-30T01:00:39;13.60;99.90
9776;DHT22;4927;52.472;13.108;2023-08-30T01:01:41;13.60;99.90
9776;DHT22;4927;52.472;13.108;2023-08-30T01:02:43;13.60;99.90
9776;DHT22;4927;52.472;13.108;2023-08-30T01:03:44;13.60;99.90
9776;DHT22;4927;52.472;13.108;2023-08-30T01:04:46;13.60;99.90
9776;DHT22;4927;52.472;13.108;2023-08-30T01:05:47;13.60;99.90
9776;DHT22;4927;52.472;13.108;2023-08-30T01:06:50;13.60;99.90
9776;DHT22;4927;52.472;13.108;2023-08-30T01:07:51;13.60;99.90
9776;DHT22;4927;52.472;13.108;2023-08-30T01:08:53;13.60;99.90
9776;DHT22;4927;52.472;13.108;2023-08-30T01:09:54;13.60;99.90
9776;DHT22;4927;52.472;13.108;2023-08-30T01:11:05;13.60;99.90
9776;DHT22;4927;52.472;13.108;2023-08-30T01:12:21;13.60;99.90
9776;DHT22;4927;52.472;13.108;2023-08-30T01:13:22;13.60;99.90
9776;DHT22;4927;52.472;13.108;2023-08-30T01:14:26;13.60;99.90
9776;DHT22;4927;52.472;13.108;2023-08-30T01:15:27;13.60;99.90
9776;DHT22;4927;52.472;13.108;2023-08-30T01:16:29;13.60;99.90
9776;DHT22;4927;52.472;13.108;2023-08-30T01:17:30;13.50;99.90
9776;DHT22;4927;52.472;13.108;2023-08-30T01:18:34;13.60;99.90
9776;DHT22;4927;52.472;13.108;2023-08-30T01:19:53;13.50;99.90
9776;DHT22;4927;52.472;13.108;2023-08-30T01:21:00;13.60;99.90
9776;DHT22;4927;52.472;13.108;2023-08-30T01:22:11;13.60;99.90
9776;DHT22;4927;52.472;13.108;2023-08-30T01:23:17;13.50;99.90
9776;DHT22;4927;52.472;13.108;2023-08-30T01:24:23;13.60;99.90
9776;DHT22;4927;52.472;13.108;2023-08-30T01:25:31;13.50;99.90
9776;DHT22;4927;52.472;13.108;2023-08-30T01:26:42;13.50;99.90
9776;DHT22;4927;52.472;13.108;2023-08-30T01:27:43;13.50;99.90
9776;DHT22;4927;52.472;13.108;2023-08-30T01:28:44;13.50;99.90
9776;DHT22;4927;52.472;13.108;2023-08-30T01:29:46;13.50;99.90
9776;DHT22;4927;52.472;13.108;2023-08-30T01:30:48;13.60;99.90
9776;DHT22;4927;52.472;13.108;2023-08-30T01:31:49;13.60;99.90
9776;DHT22;4927;52.472;13.108;2023-08-30T01:32:51;13.60;99.90
9776;DHT22;4927;52.472;13.108;2023-08-30T01:33:53;13.60;99.90
9776;DHT22;4927;52.472;13.108;2023-08-30T01:34:55;13.50;99.90
9776;DHT22;4927;52.472;13.108;2023-08-30T01:35:57;13.50;99.90
9776;DHT22;4927;52.472;13.108;2023-08-30T01:36:58;13.60;99.90
9776;DHT22;4927;52.472;13.108;2023-08-30T01:38:00;13.60;99.90
9776;DHT22;4927;52.472;13.108;2023-08-30T01:39:01;13.50;99.90
9776;DHT22;4927;52.472;13.108;2023-08-30T01:40:04;13.50;99.90
9776;DHT22;4927;52.472;13.108;2023-08-30T01:41:07;13.60;99.90
9776;DHT22;4927;52.472;13.108;2023-08-30T01:42:08;13.60;99.90
9776;DHT22;4927;52.472;13.108;2023-08-30T01:43:10;13.50;99.90
9776;DHT22;4927;52.472;13.108;2023-08-30T01:44:12;13.50;99.90
9776;DHT22;4927;52.472;13.108;2023-08-30T01:45:14;13.50;99.90
9776;DHT22;4927;52.472;13.108;2023-08-30T01:46:16;13.60;99.90
9776;DHT22;4927;52.472;13.108;2023-08-30T01:47:18;13.60;99.90
9776;DHT22;4927;52.472;13.108;2023-08-30T01:48:20;13.60;99.90
9776;DHT22;4927;52.472;13.108;2023-08-30T01:49:22;13.60;99.90
9776;DHT22;4927;52.472;13.108;2023-08-30T01:50:23;13.60;99.90
9776;DHT22;4927;52.472;13.108;2023-08-30T01:51:25;13.60;99.90
9776;DHT22;4927;52.472;13.108;2023-08-30T01:52:27;13.60;99.90
9776;DHT22;4927;52.472;13.108;2023-08-30T01:53:28;13.60;99.90
9776;DHT22;4927;52.472;13.108;2023-08-30T01:54:30;13.60;99.90
9776;DHT22;4927;52.472;13.108;2023-08-30T01:55:32;13.60;99.90
9776;DHT22;4927;52.472;13.108;2023-08-30T01:56:33;13.60;99.90
9776;DHT22;4927;52.472;13.108;2023-08-30T01:57:35;13.60;99.90
9776;DHT22;4927;52.472;13.108;2023-08-30T01:58:37;13.60;99.90
9776;DHT22;4927;52.472;13.108;2023-08-30T01:59:38;13.60;99.90
9776;DHT22;4927;52.472;13.108;2023-08-30T02:00:40;13.60;99.90
9776;DHT22;4927;52.472;13.108;2023-08-30T02:01:41;13.60;99.90
9776;DHT22;4927;52.472;13.108;2023-08-30T02:02:44;13.60;99.90
9776;DHT22;4927;52.472;13.108;2023-08-30T02:03:45;13.60;99.90
9776;DHT22;4927;52.472;13.108;2023-08-30T02:04:47;13.60;99.90
9776;DHT22;4927;52.472;13.108;2023-08-30T02:06:02;13.60;99.90
9776;DHT22;4927;52.472;13.108;2023-08-30T02:07:03;13.60;99.90
9776;DHT22;4927;52.472;13.108;2023-08-30T02:08:11;13.70;99.90
9776;DHT22;4927;52.472;13.108;2023-08-30T02:09:14;13.60;99.90
9776;DHT22;4927;52.472;13.108;2023-08-30T02:10:16;13.60;99.90
9776;DHT22;4927;52.472;13.108;2023-08-30T02:11:19;13.60;99.90
9776;DHT22;4927;52.472;13.108;2023-08-30T02:12:19;13.70;99.90
9776;DHT22;4927;52.472;13.108;2023-08-30T02:13:26;13.60;99.90
9776;DHT22;4927;52.472;13.108;2023-08-30T02:14:23;13.60;99.90
9776;DHT22;4927;52.472;13.108;2023-08-30T02:15:25;13.70;99.90
9776;DHT22;4927;52.472;13.108;2023-08-30T02:16:27;13.60;99.90
9776;DHT22;4927;52.472;13.108;2023-08-30T02:17:28;13.60;99.90
9776;DHT22;4927;52.472;13.108;2023-08-30T02:18:29;13.70;99.90
9776;DHT22;4927;52.472;13.108;2023-08-30T02:19:31;13.70;99.90
9776;DHT22;4927;52.472;13.108;2023-08-30T02:20:33;13.70;99.90
9776;DHT22;4927;52.472;13.108;2023-08-30T02:21:34;13.70;99.90
9776;DHT22;4927;52.472;13.108;2023-08-30T02:22:36;13.70;99.90
9776;DHT22;4927;52.472;13.108;2023-08-30T02:23:38;13.70;99.90
9776;DHT22;4927;52.472;13.108;2023-08-30T02:24:39;13.70;99.90
9776;DHT22;4927;52.472;13.108;2023-08-30T02:25:41;13.70;99.90
9776;DHT22;4927;52.472;13.108;2023-08-30T02:26:42;13.70;99.90
9776;DHT22;4927;52.472;13.108;2023-08-30T02:27:44;13.70;99.90
9776;DHT22;4927;52.472;13.108;2023-08-30T02:28:46;13.70;99.90
9776;DHT22;4927;52.472;13.108;2023-08-30T02:29:48;13.70;99.90
9776;DHT22;4927;52.472;13.108;2023-08-30T02:30:52;13.70;99.90
9776;DHT22;4927;52.472;13.108;2023-08-30T02:31:52;13.70;99.90
9776;DHT22;4927;52.472;13.108;2023-08-30T02:32:53;13.70;99.90
9776;DHT22;4927;52.472;13.108;2023-08-30T02:33:55;13.70;99.90
9776;DHT22;4927;52.472;13.108;2023-08-30T02:34:57;13.70;99.90
9776;DHT22;4927;52.472;13.108;2023-08-30T02:35:58;13.70;99.90
9776;DHT22;4927;52.472;13.108;2023-08-30T02:37:00;13.70;99.90
9776;DHT22;4927;52.472;13.108;2023-08-30T02:38:02;13.70;99.90
9776;DHT22;4927;52.472;13.108;2023-08-30T02:39:04;13.70;99.90
9776;DHT22;4927;52.472;13.108;2023-08-30T02:40:07;13.70;99.90
9776;DHT22;4927;52.472;13.108;2023-08-30T02:41:09;13.70;99.90
9776;DHT22;4927;52.472;13.108;2023-08-30T02:42:10;13.70;99.90
9776;DHT22;4927;52.472;13.108;2023-08-30T02:43:12;13.70;99.90
9776;DHT22;4927;52.472;13.108;2023-08-30T02:44:14;13.70;99.90
9776;DHT22;4927;52.472;13.108;2023-08-30T02:45:15;13.70;99.90
9776;DHT22;4927;52.472;13.108;2023-08-30T02:46:17;13.70;99.90
9776;DHT22;4927;52.472;13.108;2023-08-30T02:47:19;13.70;99.90
9776;DHT22;4927;52.472;13.108;2023-08-30T02:48:20;13.70;99.90
9776;DHT22;4927;52.472;13.108;2023-08-30T02:49:23;13.70;99.90
9776;DHT22;4927;52.472;13.108;2023-08-30T02:50:24;13.70;99.90
9776;DHT22;4927;52.472;13.108;2023-08-30T02:51:26;13.70;99.90
9776;DHT22;4927;52.472;13.108;2023-08-30T02:52:27;13.70;99.90
9776;DHT22;4927;52.472;13.108;2023-08-30T02:53:29;13.70;99.90
9776;DHT22;4927;52.472;13.108;2023-08-30T02:54:31;13.70;99.90
9776;DHT22;4927;52.472;13.108;2023-08-30T02:55:32;13.70;99.90
9776;DHT22;4927;52.472;13.108;2023-08-30T02:56:34;13.70;99.90
9776;DHT22;4927;52.472;13.108;2023-08-30T02:57:36;13.70;99.90
9776;DHT22;4927;52.472;13.108;2023-08-30T02:58:39;13.70;99.90
9776;DHT22;4927;52.472;13.108;2023-08-30T02:59:41;13.70;99.90
9776;DHT22;4927;52.472;13.108;2023-08-30T03:00:43;13.60;99.90
9776;DHT22;4927;52.472;13.108;2023-08-30T03:01:44;13.70;99.90
9776;DHT22;4927;52.472;13.108;2023-08-30T03:02:46;13.60;99.90
9776;DHT22;4927;52.472;13.108;2023-08-30T03:03:48;13.70;99.90
9776;DHT22;4927;52.472;13.108;2023-08-30T03:04:50;13.60;99.90
9776;DHT22;4927;52.472;13.108;2023-08-30T03:05:52;13.60;99.90
9776;DHT22;4927;52.472;13.108;2023-08-30T03:06:53;13.60;99.90
9776;DHT22;4927;52.472;13.108;2023-08-30T03:07:55;13.60;99.90
9776;DHT22;4927;52.472;13.108;2023-08-30T03:08:56;13.60;99.90
9776;DHT22;4927;52.472;13.108;2023-08-30T03:09:58;13.60;99.90
9776;DHT22;4927;52.472;13.108;2023-08-30T03:11:10;13.60;99.90
9776;DHT22;4927;52.472;13.108;2023-08-30T03:12:18;13.60;99.90
9776;DHT22;4927;52.472;13.108;2023-08-30T03:13:20;13.60;99.90
9776;DHT22;4927;52.472;13.108;2023-08-30T03:14:22;13.60;99.90
9776;DHT22;4927;52.472;13.108;2023-08-30T03:15:24;13.50;99.90
9776;DHT22;4927;52.472;13.108;2023-08-30T03:16:25;13.50;99.90
9776;DHT22;4927;52.472;13.108;2023-08-30T03:17:27;13.50;99.90
9776;DHT22;4927;52.472;13.108;2023-08-30T03:18:29;13.50;99.90
9776;DHT22;4927;52.472;13.108;2023-08-30T03:19:31;13.50;99.90
9776;DHT22;4927;52.472;13.108;2023-08-30T03:20:33;13.50;99.90
9776;DHT22;4927;52.472;13.108;2023-08-30T03:21:34;13.50;99.90
9776;DHT22;4927;52.472;13.108;2023-08-30T03:22:36;13.50;99.90
9776;DHT22;4927;52.472;13.108;2023-08-30T03:23:38;13.50;99.90
9776;DHT22;4927;52.472;13.108;2023-08-30T03:24:39;13.50;99.90
9776;DHT22;4927;52.472;13.108;2023-08-30T03:25:41;13.50;99.90
9776;DHT22;4927;52.472;13.108;2023-08-30T03:26:43;13.50;99.90
9776;DHT22;4927;52.472;13.108;2023-08-30T03:27:44;13.50;99.90
9776;DHT22;4927;52.472;13.108;2023-08-30T03:28:46;13.40;99.90
9776;DHT22;4927;52.472;13.108;2023-08-30T03:29:47;13.50;99.90
9776;DHT22;4927;52.472;13.108;2023-08-30T03:30:49;13.40;99.90
9776;DHT22;4927;52.472;13.108;2023-08-30T03:31:51;13.40;99.90
9776;DHT22;4927;52.472;13.108;2023-08-30T03:32:52;13.40;99.90
9776;DHT22;4927;52.472;13.108;2023-08-30T03:33:54;13.40;99.90
9776;DHT22;4927;52.472;13.108;2023-08-30T03:34:57;13.40;99.90
9776;DHT22;4927;52.472;13.108;2023-08-30T03:35:58;13.40;99.90
9776;DHT22;4927;52.472;13.108;2023-08-30T03:37:00;13.40;99.90
9776;DHT22;4927;52.472;13.108;2023-08-30T03:38:02;13.40;99.90
9776;DHT22;4927;52.472;13.108;2023-08-30T03:39:04;13.40;99.90
9776;DHT22;4927;52.472;13.108;2023-08-30T03:40:07;13.40;99.90
9776;DHT22;4927;52.472;13.108;2023-08-30T03:41:10;13.40;99.90
9776;DHT22;4927;52.472;13.108;2023-08-30T03:42:10;13.40;99.90
9776;DHT22;4927;52.472;13.108;2023-08-30T03:43:12;13.40;99.90
9776;DHT22;4927;52.472;13.108;2023-08-30T03:44:14;13.40;99.90
9776;DHT22;4927;52.472;13.108;2023-08-30T03:45:16;13.40;99.90
9776;DHT22;4927;52.472;13.108;2023-08-30T03:46:18;13.40;99.90
9776;DHT22;4927;52.472;13.108;2023-08-30T03:47:19;13.40;99.90
9776;DHT22;4927;52.472;13.108;2023-08-30T03:48:21;13.40;99.90
9776;DHT22;4927;52.472;13.108;2023-08-30T03:49:23;13.40;99.90
9776;DHT22;4927;52.472;13.108;2023-08-30T03:50:25;13.40;99.90
9776;DHT22;4927;52.472;13.108;2023-08-30T03:51:27;13.40;99.90
9776;DHT22;4927;52.472;13.108;2023-08-30T03:52:30;13.40;99.90
9776;DHT22;4927;52.472;13.108;2023-08-30T03:53:31;13.30;99.90
9776;DHT22;4927;52.472;13.108;2023-08-30T03:54:33;13.30;99.90
9776;DHT22;4927;52.472;13.108;2023-08-30T03:55:35;13.30;99.90
9776;DHT22;4927;52.472;13.108;2023-08-30T03:56:37;13.30;99.90
9776;DHT22;4927;52.472;13.108;2023-08-30T03:57:39;13.30;99.90
9776;DHT22;4927;52.472;13.108;2023-08-30T03:58:40;13.30;99.90
9776;DHT22;4927;52.472;13.108;2023-08-30T03:59:42;13.30;99.90
9776;DHT22;4927;52.472;13.108;2023-08-30T04:00:44;13.30;99.90
9776;DHT22;4927;52.472;13.108;2023-08-30T04:01:46;13.30;99.90
9776;DHT22;4927;52.472;13.108;2023-08-30T04:02:48;13.30;99.90
9776;DHT22;4927;52.472;13.108;2023-08-30T04:03:49;13.30;99.90
9776;DHT22;4927;52.472;13.108;2023-08-30T04:04:51;13.30;99.90
9776;DHT22;4927;52.472;13.108;2023-08-30T04:05:56;13.30;99.90
9776;DHT22;4927;52.472;13.108;2023-08-30T04:06:57;13.30;99.90
9776;DHT22;4927;52.472;13.108;2023-08-30T04:07:59;13.30;99.90
9776;DHT22;4927;52.472;13.108;2023-08-30T04:09:00;13.30;99.90
9776;DHT22;4927;52.472;13.108;2023-08-30T04:10:02;13.30;99.90
9776;DHT22;4927;52.472;13.108;2023-08-30T04:11:04;13.30;99.90
9776;DHT22;4927;52.472;13.108;2023-08-30T04:12:06;13.30;99.90
9776;DHT22;4927;52.472;13.108;2023-08-30T04:13:08;13.40;99.90
9776;DHT22;4927;52.472;13.108;2023-08-30T04:14:10;13.40;99.90
9776;DHT22;4927;52.472;13.108;2023-08-30T04:15:11;13.40;99.90
9776;DHT22;4927;52.472;13.108;2023-08-30T04:16:14;13.40;99.90
9776;DHT22;4927;52.472;13.108;2023-08-30T04:17:15;13.40;99.90
9776;DHT22;4927;52.472;13.108;2023-08-30T04:18:17;13.40;99.90
9776;DHT22;4927;52.472;13.108;2023-08-30T04:19:19;13.40;99.90
9776;DHT22;4927;52.472;13.108;2023-08-30T04:20:20;13.40;99.90
9776;DHT22;4927;52.472;13.108;2023-08-30T04:21:22;13.40;99.90
9776;DHT22;4927;52.472;13.108;2023-08-30T04:22:24;13.40;99.90
9776;DHT22;4927;52.472;13.108;2023-08-30T04:23:26;13.40;99.90
9776;DHT22;4927;52.472;13.108;2023-08-30T04:24:27;13.40;99.90
9776;DHT22;4927;52.472;13.108;2023-08-30T04:25:29;13.40;99.90
9776;DHT22;4927;52.472;13.108;2023-08-30T04:26:31;13.40;99.90
9776;DHT22;4927;52.472;13.108;2023-08-30T04:27:32;13.40;99.90
9776;DHT22;4927;52.472;13.108;2023-08-30T04:28:34;13.40;99.90
9776;DHT22;4927;52.472;13.108;2023-08-30T04:29:37;13.50;99.90
9776;DHT22;4927;52.472;13.108;2023-08-30T04:30:38;13.50;99.90
9776;DHT22;4927;52.472;13.108;2023-08-30T04:31:42;13.50;99.90
9776;DHT22;4927;52.472;13.108;2023-08-30T04:32:43;13.50;99.90
9776;DHT22;4927;52.472;13.108;2023-08-30T04:33:44;13.50;99.90
9776;DHT22;4927;52.472;13.108;2023-08-30T04:34:46;13.50;99.90
9776;DHT22;4927;52.472;13.108;2023-08-30T04:35:51;13.50;99.90
9776;DHT22;4927;52.472;13.108;2023-08-30T04:36:53;13.50;99.90
9776;DHT22;4927;52.472;13.108;2023-08-30T04:37:55;13.50;99.90
9776;DHT22;4927;52.472;13.108;2023-08-30T04:38:57;13.50;99.90
9776;DHT22;4927;52.472;13.108;2023-08-30T04:39:58;13.50;99.90
9776;DHT22;4927;52.472;13.108;2023-08-30T04:41:00;13.50;99.90
9776;DHT22;4927;52.472;13.108;2023-08-30T04:42:02;13.50;99.90
9776;DHT22;4927;52.472;13.108;2023-08-30T04:43:03;13.50;99.90
9776;DHT22;4927;52.472;13.108;2023-08-30T04:44:06;13.50;99.90
9776;DHT22;4927;52.472;13.108;2023-08-30T04:45:08;13.50;99.90
9776;DHT22;4927;52.472;13.108;2023-08-30T04:46:10;13.50;99.90
9776;DHT22;4927;52.472;13.108;2023-08-30T04:47:12;13.60;99.90
9776;DHT22;4927;52.472;13.108;2023-08-30T04:48:13;13.50;99.90
9776;DHT22;4927;52.472;13.108;2023-08-30T04:49:15;13.50;99.90
9776;DHT22;4927;52.472;13.108;2023-08-30T04:50:16;13.50;99.90
9776;DHT22;4927;52.472;13.108;2023-08-30T04:51:18;13.50;99.90
9776;DHT22;4927;52.472;13.108;2023-08-30T04:52:20;13.50;99.90
9776;DHT22;4927;52.472;13.108;2023-08-30T04:53:21;13.50;99.90
9776;DHT22;4927;52.472;13.108;2023-08-30T04:54:23;13.50;99.90
9776;DHT22;4927;52.472;13.108;2023-08-30T04:55:25;13.50;99.90
9776;DHT22;4927;52.472;13.108;2023-08-30T04:56:27;13.60;99.90
9776;DHT22;4927;52.472;13.108;2023-08-30T04:57:29;13.50;99.90
9776;DHT22;4927;52.472;13.108;2023-08-30T04:58:30;13.60;99.90
9776;DHT22;4927;52.472;13.108;2023-08-30T04:59:32;13.60;99.90
9776;DHT22;4927;52.472;13.108;2023-08-30T05:00:34;13.60;99.90
9776;DHT22;4927;52.472;13.108;2023-08-30T05:01:35;13.60;99.90
9776;DHT22;4927;52.472;13.108;2023-08-30T05:02:37;13.60;99.90
9776;DHT22;4927;52.472;13.108;2023-08-30T05:03:39;13.60;99.90
9776;DHT22;4927;52.472;13.108;2023-08-30T05:04:40;13.60;99.90
9776;DHT22;4927;52.472;13.108;2023-08-30T05:05:44;13.70;99.90
9776;DHT22;4927;52.472;13.108;2023-08-30T05:06:46;13.70;99.90
9776;DHT22;4927;52.472;13.108;2023-08-30T05:07:48;13.70;99.90
9776;DHT22;4927;52.472;13.108;2023-08-30T05:08:50;13.70;99.90
9776;DHT22;4927;52.472;13.108;2023-08-30T05:09:51;13.80;99.90
9776;DHT22;4927;52.472;13.108;2023-08-30T05:10:53;13.80;99.90
9776;DHT22;4927;52.472;13.108;2023-08-30T05:11:54;13.80;99.90
9776;DHT22;4927;52.472;13.108;2023-08-30T05:12:56;13.80;99.90
9776;DHT22;4927;52.472;13.108;2023-08-30T05:13:58;13.80;99.90
9776;DHT22;4927;52.472;13.108;2023-08-30T05:14:59;13.90;99.90
9776;DHT22;4927;52.472;13.108;2023-08-30T05:16:01;13.90;99.90
9776;DHT22;4927;52.472;13.108;2023-08-30T05:17:03;14.00;99.90
9776;DHT22;4927;52.472;13.108;2023-08-30T05:18:05;13.90;99.90
9776;DHT22;4927;52.472;13.108;2023-08-30T05:19:07;13.90;99.90
9776;DHT22;4927;52.472;13.108;2023-08-30T05:20:09;14.00;99.90
9776;DHT22;4927;52.472;13.108;2023-08-30T05:21:11;14.00;99.90
9776;DHT22;4927;52.472;13.108;2023-08-30T05:22:13;14.00;99.90
9776;DHT22;4927;52.472;13.108;2023-08-30T05:23:14;14.00;99.90
9776;DHT22;4927;52.472;13.108;2023-08-30T05:24:16;14.10;99.90
9776;DHT22;4927;52.472;13.108;2023-08-30T05:25:18;14.10;99.90
9776;DHT22;4927;52.472;13.108;2023-08-30T05:26:20;14.10;99.90
9776;DHT22;4927;52.472;13.108;2023-08-30T05:27:22;14.10;99.90
9776;DHT22;4927;52.472;13.108;2023-08-30T05:28:24;14.10;99.90
9776;DHT22;4927;52.472;13.108;2023-08-30T05:29:25;14.20;99.90
9776;DHT22;4927;52.472;13.108;2023-08-30T05:30:27;14.20;99.90
9776;DHT22;4927;52.472;13.108;2023-08-30T05:31:29;14.20;99.90
9776;DHT22;4927;52.472;13.108;2023-08-30T05:32:30;14.20;99.90
9776;DHT22;4927;52.472;13.108;2023-08-30T05:33:32;14.20;99.90
9776;DHT22;4927;52.472;13.108;2023-08-30T05:34:33;14.30;99.90
9776;DHT22;4927;52.472;13.108;2023-08-30T05:35:35;14.30;99.90
9776;DHT22;4927;52.472;13.108;2023-08-30T05:36:37;14.30;99.90
9776;DHT22;4927;52.472;13.108;2023-08-30T05:37:39;14.30;99.90
9776;DHT22;4927;52.472;13.108;2023-08-30T05:38:41;14.40;99.90
9776;DHT22;4927;52.472;13.108;2023-08-30T05:39:43;14.30;99.90
9776;DHT22;4927;52.472;13.108;2023-08-30T05:40:44;14.40;99.90
9776;DHT22;4927;52.472;13.108;2023-08-30T05:41:46;14.40;99.90
9776;DHT22;4927;52.472;13.108;2023-08-30T05:42:48;14.40;99.90
9776;DHT22;4927;52.472;13.108;2023-08-30T05:43:49;14.40;99.90
9776;DHT22;4927;52.472;13.108;2023-08-30T05:44:51;14.50;99.90
9776;DHT22;4927;52.472;13.108;2023-08-30T05:45:52;14.50;99.90
9776;DHT22;4927;52.472;13.108;2023-08-30T05:46:54;14.50;99.90
9776;DHT22;4927;52.472;13.108;2023-08-30T05:47:56;14.50;99.90
9776;DHT22;4927;52.472;13.108;2023-08-30T05:48:57;14.60;99.90
9776;DHT22;4927;52.472;13.108;2023-08-30T05:49:59;14.60;99.90
9776;DHT22;4927;52.472;13.108;2023-08-30T05:51:00;14.60;99.90
9776;DHT22;4927;52.472;13.108;2023-08-30T05:52:03;14.60;99.90
9776;DHT22;4927;52.472;13.108;2023-08-30T05:53:05;14.60;99.90
9776;DHT22;4927;52.472;13.108;2023-08-30T05:54:07;14.70;99.90
9776;DHT22;4927;52.472;13.108;2023-08-30T05:55:08;14.70;99.90
9776;DHT22;4927;52.472;13.108;2023-08-30T05:56:10;14.70;99.90
9776;DHT22;4927;52.472;13.108;2023-08-30T05:57:12;14.70;99.90
9776;DHT22;4927;52.472;13.108;2023-08-30T05:58:14;14.80;99.90
9776;DHT22;4927;52.472;13.108;2023-08-30T05:59:15;14.80;99.90
9776;DHT22;4927;52.472;13.108;2023-08-30T06:00:18;14.80;99.90
9776;DHT22;4927;52.472;13.108;2023-08-30T06:01:20;14.80;99.90
9776;DHT22;4927;52.472;13.108;2023-08-30T06:02:23;14.90;99.90
9776;DHT22;4927;52.472;13.108;2023-08-30T06:03:24;14.90;99.90
9776;DHT22;4927;52.472;13.108;2023-08-30T06:04:26;14.90;99.90
9776;DHT22;4927;52.472;13.108;2023-08-30T06:05:28;14.90;99.90
9776;DHT22;4927;52.472;13.108;2023-08-30T06:06:29;14.90;99.90
9776;DHT22;4927;52.472;13.108;2023-08-30T06:07:31;15.00;99.90
9776;DHT22;4927;52.472;13.108;2023-08-30T06:08:32;15.00;99.90
9776;DHT22;4927;52.472;13.108;2023-08-30T06:09:34;15.00;99.90
9776;DHT22;4927;52.472;13.108;2023-08-30T06:10:40;15.00;99.90
9776;DHT22;4927;52.472;13.108;2023-08-30T06:11:42;15.10;99.90
9776;DHT22;4927;52.472;13.108;2023-08-30T06:12:44;15.10;99.90
9776;DHT22;4927;52.472;13.108;2023-08-30T06:13:45;15.10;99.90
9776;DHT22;4927;52.472;13.108;2023-08-30T06:14:47;15.10;99.90
9776;DHT22;4927;52.472;13.108;2023-08-30T06:15:51;15.10;99.90
9776;DHT22;4927;52.472;13.108;2023-08-30T06:16:52;15.10;99.90
9776;DHT22;4927;52.472;13.108;2023-08-30T06:17:53;15.20;99.90
9776;DHT22;4927;52.472;13.108;2023-08-30T06:18:55;15.20;99.90
9776;DHT22;4927;52.472;13.108;2023-08-30T06:19:57;15.20;99.90
9776;DHT22;4927;52.472;13.108;2023-08-30T06:20:58;15.20;99.90
9776;DHT22;4927;52.472;13.108;2023-08-30T06:22:00;15.20;99.90
9776;DHT22;4927;52.472;13.108;2023-08-30T06:23:02;15.30;99.90
9776;DHT22;4927;52.472;13.108;2023-08-30T06:24:05;15.30;99.90
9776;DHT22;4927;52.472;13.108;2023-08-30T06:25:07;15.30;99.90
9776;DHT22;4927;52.472;13.108;2023-08-30T06:26:09;15.30;99.90
9776;DHT22;4927;52.472;13.108;2023-08-30T06:27:11;15.30;99.90
9776;DHT22;4927;52.472;13.108;2023-08-30T06:28:13;15.30;99.90
9776;DHT22;4927;52.472;13.108;2023-08-30T06:29:14;15.30;99.90
9776;DHT22;4927;52.472;13.108;2023-08-30T06:30:16;15.30;99.90
9776;DHT22;4927;52.472;13.108;2023-08-30T06:31:18;15.30;99.90
9776;DHT22;4927;52.472;13.108;2023-08-30T06:32:19;15.40;99.90
9776;DHT22;4927;52.472;13.108;2023-08-30T06:33:21;15.40;99.90
9776;DHT22;4927;52.472;13.108;2023-08-30T06:34:23;15.40;99.90
9776;DHT22;4927;52.472;13.108;2023-08-30T06:35:24;15.40;99.90
9776;DHT22;4927;52.472;13.108;2023-08-30T06:36:26;15.40;99.90
9776;DHT22;4927;52.472;13.108;2023-08-30T06:37:28;15.40;99.90
9776;DHT22;4927;52.472;13.108;2023-08-30T06:38:29;15.40;99.90